createdAt,value
2017-06-25T00:00:11.768Z,27.87
2017-06-25T00:01:11.808Z,27.9
2017-06-25T00:02:11.841Z,27.93
2017-06-25T00:03:11.867Z,27.92
2017-06-25T00:04:11.894Z,27.82
2017-06-25T00:05:11.932Z,27.93
2017-06-25T00:06:11.955Z,27.88
2017-06-25T00:07:11.986Z,27.84
2017-06-25T00:08:12.013Z,27.94
2017-06-25T00:09:11.424Z,27.9
2017-06-25T00:10:12.076Z,27.82
2017-06-25T00:11:12.096Z,27.82
2017-06-25T00:12:11.816Z,27.79
2017-06-25T00:13:11.850Z,27.79
2017-06-25T00:14:11.882Z,27.85
2017-06-25T00:15:12.215Z,27.84
2017-06-25T00:16:11.936Z,27.84
2017-06-25T00:17:12.529Z,27.88
2017-06-25T00:18:11.991Z,27.87
2017-06-25T00:19:12.347Z,27.82
2017-06-25T00:20:12.376Z,27.84
2017-06-25T00:21:12.399Z,27.82
2017-06-25T00:22:12.684Z,27.9
2017-06-25T00:23:12.478Z,27.84
2017-06-25T00:24:12.188Z,27.85
2017-06-25T00:25:12.217Z,27.82
2017-06-25T00:26:12.545Z,27.82
2017-06-25T00:27:12.253Z,27.75
2017-06-25T00:28:11.990Z,27.79
2017-06-25T00:29:12.332Z,27.77
2017-06-25T00:30:12.669Z,27.75
2017-06-25T00:31:12.389Z,27.77
2017-06-25T00:32:12.984Z,27.82
2017-06-25T00:33:12.446Z,27.79
2017-06-25T00:34:12.786Z,27.82
2017-06-25T00:35:12.500Z,27.78
2017-06-25T00:36:12.852Z,27.82
2017-06-25T00:37:13.129Z,27.85
2017-06-25T00:38:12.922Z,27.85
2017-06-25T00:39:12.937Z,27.84
2017-06-25T00:40:12.968Z,27.81
2017-06-25T00:41:12.685Z,27.84
2017-06-25T00:42:13.025Z,27.81
2017-06-25T00:43:12.750Z,27.87
2017-06-25T00:44:13.083Z,27.85
2017-06-25T00:45:13.120Z,27.84
2017-06-25T00:46:12.869Z,27.84
2017-06-25T00:47:13.449Z,27.85
2017-06-25T00:48:13.189Z,27.79
2017-06-25T00:49:13.231Z,27.88
2017-06-25T00:50:12.961Z,27.84
2017-06-25T00:51:12.981Z,27.9
2017-06-25T00:52:13.271Z,27.81
2017-06-25T00:53:13.039Z,27.84
2017-06-25T00:54:13.387Z,27.88
2017-06-25T00:55:13.099Z,27.79
2017-06-25T00:56:13.134Z,27.84
2017-06-25T00:57:13.465Z,27.81
2017-06-25T00:58:13.183Z,27.84
2017-06-25T00:59:13.535Z,27.87
2017-06-25T01:00:13.259Z,27.78
2017-06-25T01:01:13.584Z,27.87
2017-06-25T01:02:13.874Z,27.85
2017-06-25T01:03:13.340Z,27.88
2017-06-25T01:04:13.375Z,27.87
2017-06-25T01:05:13.712Z,27.81
2017-06-25T01:06:13.433Z,27.79
2017-06-25T01:07:13.705Z,27.84
2017-06-25T01:08:13.490Z,27.84
2017-06-25T01:09:13.199Z,27.87
2017-06-25T01:10:13.548Z,27.81
2017-06-25T01:11:13.577Z,27.87
2017-06-25T01:12:13.930Z,27.82
2017-06-25T01:13:13.944Z,27.88
2017-06-25T01:14:13.979Z,27.88
2017-06-25T01:15:13.691Z,27.81
2017-06-25T01:16:13.722Z,27.85
2017-06-25T01:17:14.322Z,27.82
2017-06-25T01:18:13.803Z,27.88
2017-06-25T01:19:13.821Z,27.79
2017-06-25T01:20:14.161Z,27.82
2017-06-25T01:21:14.182Z,27.79
2017-06-25T01:22:14.515Z,27.84
2017-06-25T01:23:13.935Z,27.87
2017-06-25T01:24:13.651Z,27.81
2017-06-25T01:25:14.304Z,27.88
2017-06-25T01:26:14.341Z,27.84
2017-06-25T01:27:14.311Z,27.77
2017-06-25T01:28:14.403Z,27.84
2017-06-25T01:29:14.424Z,27.85
2017-06-25T01:30:14.141Z,27.85
2017-06-25T01:31:14.494Z,27.88
2017-06-25T01:32:14.510Z,27.84
2017-06-25T01:33:14.543Z,27.88
2017-06-25T01:34:14.581Z,27.84
2017-06-25T01:35:13.981Z,27.81
2017-06-25T01:36:14.325Z,27.88
2017-06-25T01:37:14.916Z,27.82
2017-06-25T01:38:14.690Z,27.88
2017-06-25T01:39:14.715Z,27.87
2017-06-25T01:40:14.442Z,27.77
2017-06-25T01:41:14.786Z,27.87
2017-06-25T01:42:15.114Z,27.88
2017-06-25T01:43:14.844Z,27.81
2017-06-25T01:44:14.572Z,27.93
2017-06-25T01:45:14.605Z,27.81
2017-06-25T01:46:14.938Z,27.82
2017-06-25T01:47:14.334Z,27.87
2017-06-25T01:48:14.992Z,27.88
2017-06-25T01:49:14.708Z,27.87
2017-06-25T01:50:15.049Z,27.9
2017-06-25T01:51:14.766Z,27.87
2017-06-25T01:52:15.102Z,27.78
2017-06-25T01:53:15.132Z,27.78
2017-06-25T01:54:15.176Z,27.9
2017-06-25T01:55:14.893Z,27.79
2017-06-25T01:56:15.226Z,27.84
2017-06-25T01:57:14.630Z,27.79
2017-06-25T01:58:15.283Z,27.85
2017-06-25T01:59:15.317Z,27.85
2017-06-25T02:00:15.342Z,27.82
2017-06-25T02:01:15.373Z,27.85
2017-06-25T02:02:15.402Z,27.84
2017-06-25T02:03:15.436Z,27.88
2017-06-25T02:04:15.465Z,27.78
2017-06-25T02:05:15.493Z,27.85
2017-06-25T02:06:15.218Z,27.84
2017-06-25T02:07:15.246Z,27.78
2017-06-25T02:08:15.584Z,27.84
2017-06-25T02:09:15.642Z,27.79
2017-06-25T02:10:15.334Z,27.84
2017-06-25T02:11:15.675Z,27.79
2017-06-25T02:12:15.699Z,27.78
2017-06-25T02:13:15.420Z,27.81
2017-06-25T02:14:15.446Z,27.78
2017-06-25T02:15:15.482Z,27.79
2017-06-25T02:16:15.823Z,27.78
2017-06-25T02:17:15.859Z,27.79
2017-06-25T02:18:15.869Z,27.84
2017-06-25T02:19:15.906Z,27.74
2017-06-25T02:20:15.938Z,27.82
2017-06-25T02:21:15.982Z,27.82
2017-06-25T02:22:16.000Z,27.82
2017-06-25T02:23:16.289Z,27.88
2017-06-25T02:24:16.057Z,27.78
2017-06-25T02:25:16.127Z,27.78
2017-06-25T02:26:15.809Z,27.78
2017-06-25T02:27:16.146Z,27.82
2017-06-25T02:28:16.432Z,27.88
2017-06-25T02:29:15.893Z,27.84
2017-06-25T02:30:15.935Z,27.78
2017-06-25T02:31:16.266Z,27.81
2017-06-25T02:32:16.295Z,27.77
2017-06-25T02:33:16.629Z,27.77
2017-06-25T02:34:16.350Z,27.74
2017-06-25T02:35:15.763Z,27.78
2017-06-25T02:36:15.796Z,27.75
2017-06-25T02:37:16.444Z,27.75
2017-06-25T02:38:16.781Z,27.77
2017-06-25T02:39:16.205Z,27.77
2017-06-25T02:40:16.222Z,27.77
2017-06-25T02:41:16.251Z,27.75
2017-06-25T02:42:16.596Z,27.72
2017-06-25T02:43:16.570Z,27.75
2017-06-25T02:44:16.346Z,27.79
2017-06-25T02:45:16.704Z,27.78
2017-06-25T02:46:16.087Z,27.69
2017-06-25T02:47:16.736Z,27.74
2017-06-25T02:48:17.068Z,27.69
2017-06-25T02:49:16.809Z,27.72
2017-06-25T02:50:16.835Z,27.7
2017-06-25T02:51:16.865Z,27.75
2017-06-25T02:52:16.892Z,27.72
2017-06-25T02:53:16.857Z,27.67
2017-06-25T02:54:16.955Z,27.77
2017-06-25T02:55:16.982Z,27.72
2017-06-25T02:56:17.013Z,27.66
2017-06-25T02:57:16.732Z,27.7
2017-06-25T02:58:17.364Z,27.65
2017-06-25T02:59:16.798Z,27.75
2017-06-25T03:00:17.132Z,27.72
2017-06-25T03:01:16.857Z,27.69
2017-06-25T03:02:16.882Z,27.67
2017-06-25T03:03:17.469Z,27.69
2017-06-25T03:04:16.927Z,27.78
2017-06-25T03:05:17.262Z,27.7
2017-06-25T03:06:17.304Z,27.69
2017-06-25T03:07:17.029Z,27.74
2017-06-25T03:08:17.353Z,27.77
2017-06-25T03:09:17.395Z,27.81
2017-06-25T03:10:17.108Z,27.77
2017-06-25T03:11:16.829Z,27.74
2017-06-25T03:12:17.182Z,27.72
2017-06-25T03:13:17.138Z,27.78
2017-06-25T03:14:16.925Z,27.75
2017-06-25T03:15:17.572Z,27.69
2017-06-25T03:16:17.604Z,27.69
2017-06-25T03:17:17.333Z,27.66
2017-06-25T03:18:17.590Z,27.74
2017-06-25T03:19:17.379Z,27.62
2017-06-25T03:20:17.407Z,27.69
2017-06-25T03:21:17.760Z,27.63
2017-06-25T03:22:17.161Z,27.67
2017-06-25T03:23:17.802Z,27.69
2017-06-25T03:24:17.217Z,27.72
2017-06-25T03:25:17.556Z,27.66
2017-06-25T03:26:17.592Z,27.72
2017-06-25T03:27:17.619Z,27.7
2017-06-25T03:28:17.899Z,27.67
2017-06-25T03:29:17.667Z,27.66
2017-06-25T03:30:18.021Z,27.66
2017-06-25T03:31:18.040Z,27.69
2017-06-25T03:32:18.305Z,27.77
2017-06-25T03:33:18.411Z,27.67
2017-06-25T03:34:18.142Z,27.77
2017-06-25T03:35:18.152Z,27.7
2017-06-25T03:36:17.889Z,27.66
2017-06-25T03:37:18.217Z,27.78
2017-06-25T03:38:18.550Z,27.63
2017-06-25T03:39:18.287Z,27.69
2017-06-25T03:40:18.324Z,27.65
2017-06-25T03:41:18.037Z,27.69
2017-06-25T03:42:18.366Z,27.67
2017-06-25T03:43:18.340Z,27.75
2017-06-25T03:44:18.423Z,27.67
2017-06-25T03:45:18.464Z,27.66
2017-06-25T03:46:18.173Z,27.66
2017-06-25T03:47:18.530Z,27.69
2017-06-25T03:48:18.544Z,27.63
2017-06-25T03:49:17.951Z,27.69
2017-06-25T03:50:18.300Z,27.75
2017-06-25T03:51:18.322Z,27.75
2017-06-25T03:52:18.354Z,27.77
2017-06-25T03:53:18.641Z,27.69
2017-06-25T03:54:18.732Z,27.66
2017-06-25T03:55:18.761Z,27.65
2017-06-25T03:56:18.797Z,27.67
2017-06-25T03:57:18.515Z,27.7
2017-06-25T03:58:18.787Z,27.7
2017-06-25T03:59:18.884Z,27.75
2017-06-25T04:00:18.592Z,27.66
2017-06-25T04:01:18.932Z,27.63
2017-06-25T04:02:18.659Z,27.65
2017-06-25T04:03:19.296Z,27.72
2017-06-25T04:04:18.708Z,27.7
2017-06-25T04:05:18.745Z,27.7
2017-06-25T04:06:18.778Z,27.72
2017-06-25T04:07:18.496Z,27.66
2017-06-25T04:08:18.520Z,27.66
2017-06-25T04:09:19.171Z,27.72
2017-06-25T04:10:19.209Z,27.7
2017-06-25T04:11:18.924Z,27.7
2017-06-25T04:12:18.947Z,27.65
2017-06-25T04:13:19.297Z,27.75
2017-06-25T04:14:19.319Z,27.67
2017-06-25T04:15:19.043Z,27.67
2017-06-25T04:16:19.078Z,27.7
2017-06-25T04:17:19.112Z,27.66
2017-06-25T04:18:19.128Z,27.65
2017-06-25T04:19:19.469Z,27.67
2017-06-25T04:20:19.498Z,27.7
2017-06-25T04:21:19.535Z,27.65
2017-06-25T04:22:19.555Z,27.66
2017-06-25T04:23:19.584Z,27.69
2017-06-25T04:24:19.617Z,27.66
2017-06-25T04:25:19.642Z,27.66
2017-06-25T04:26:19.679Z,27.67
2017-06-25T04:27:19.703Z,27.63
2017-06-25T04:28:19.739Z,27.62
2017-06-25T04:29:20.069Z,27.65
2017-06-25T04:30:19.798Z,27.59
2017-06-25T04:31:19.827Z,27.63
2017-06-25T04:32:19.849Z,27.6
2017-06-25T04:33:19.569Z,27.63
2017-06-25T04:34:20.166Z,27.6
2017-06-25T04:35:19.629Z,27.57
2017-06-25T04:36:19.973Z,27.65
2017-06-25T04:37:19.991Z,27.59
2017-06-25T04:38:19.716Z,27.62
2017-06-25T04:39:19.738Z,27.65
2017-06-25T04:40:19.473Z,27.57
2017-06-25T04:41:20.107Z,27.57
2017-06-25T04:42:19.840Z,27.6
2017-06-25T04:43:20.181Z,27.6
2017-06-25T04:44:20.454Z,27.59
2017-06-25T04:45:20.239Z,27.59
2017-06-25T04:46:19.993Z,27.66
2017-06-25T04:47:20.309Z,27.65
2017-06-25T04:48:20.013Z,27.66
2017-06-25T04:49:20.653Z,27.69
2017-06-25T04:50:20.385Z,27.59
2017-06-25T04:51:20.415Z,27.66
2017-06-25T04:52:20.448Z,27.65
2017-06-25T04:53:20.473Z,27.69
2017-06-25T04:54:20.753Z,27.66
2017-06-25T04:55:20.228Z,27.67
2017-06-25T04:56:19.939Z,27.63
2017-06-25T04:57:20.285Z,27.66
2017-06-25T04:58:20.317Z,27.69
2017-06-25T04:59:20.642Z,27.66
2017-06-25T05:00:20.371Z,27.66
2017-06-25T05:01:20.403Z,27.6
2017-06-25T05:02:20.742Z,27.65
2017-06-25T05:03:20.465Z,27.65
2017-06-25T05:04:20.779Z,27.66
2017-06-25T05:05:20.827Z,27.62
2017-06-25T05:06:20.867Z,27.67
2017-06-25T05:07:20.268Z,27.69
2017-06-25T05:08:20.924Z,27.67
2017-06-25T05:09:21.250Z,27.72
2017-06-25T05:10:20.670Z,27.57
2017-06-25T05:11:21.019Z,27.63
2017-06-25T05:12:21.033Z,27.75
2017-06-25T05:13:21.053Z,27.63
2017-06-25T05:14:21.395Z,27.6
2017-06-25T05:15:20.810Z,27.63
2017-06-25T05:16:21.160Z,27.69
2017-06-25T05:17:20.874Z,27.63
2017-06-25T05:18:20.902Z,27.67
2017-06-25T05:19:21.230Z,27.62
2017-06-25T05:20:20.960Z,27.69
2017-06-25T05:21:20.673Z,27.65
2017-06-25T05:22:21.345Z,27.66
2017-06-25T05:23:21.358Z,27.69
2017-06-25T05:24:21.694Z,27.69
2017-06-25T05:25:21.113Z,27.69
2017-06-25T05:26:20.829Z,27.65
2017-06-25T05:27:21.165Z,27.65
2017-06-25T05:28:21.193Z,27.67
2017-06-25T05:29:21.532Z,27.79
2017-06-25T05:30:20.952Z,27.63
2017-06-25T05:31:21.605Z,27.77
2017-06-25T05:32:21.628Z,27.77
2017-06-25T05:33:21.662Z,27.69
2017-06-25T05:34:21.691Z,27.74
2017-06-25T05:35:21.721Z,27.74
2017-06-25T05:36:21.744Z,27.81
2017-06-25T05:37:21.494Z,27.74
2017-06-25T05:38:21.833Z,27.78
2017-06-25T05:39:21.529Z,27.84
2017-06-25T05:40:21.872Z,27.75
2017-06-25T05:41:21.269Z,27.81
2017-06-25T05:42:21.934Z,27.75
2017-06-25T05:43:21.959Z,27.79
2017-06-25T05:44:21.672Z,27.81
2017-06-25T05:45:21.702Z,27.79
2017-06-25T05:46:21.730Z,27.78
2017-06-25T05:47:22.074Z,27.72
2017-06-25T05:48:22.099Z,27.78
2017-06-25T05:49:22.135Z,27.84
2017-06-25T05:50:22.154Z,27.74
2017-06-25T05:51:22.202Z,27.77
2017-06-25T05:52:22.226Z,27.77
2017-06-25T05:53:22.259Z,27.82
2017-06-25T05:54:22.267Z,27.84
2017-06-25T05:55:22.348Z,27.79
2017-06-25T05:56:22.345Z,27.85
2017-06-25T05:57:22.374Z,27.81
2017-06-25T05:58:22.087Z,27.84
2017-06-25T05:59:22.116Z,27.84
2017-06-25T06:00:22.144Z,27.87
2017-06-25T06:01:22.177Z,27.85
2017-06-25T06:02:22.518Z,27.88
2017-06-25T06:03:22.549Z,27.84
2017-06-25T06:04:22.576Z,27.82
2017-06-25T06:05:22.285Z,27.84
2017-06-25T06:06:22.639Z,27.82
2017-06-25T06:07:22.675Z,27.88
2017-06-25T06:08:22.068Z,27.82
2017-06-25T06:09:22.720Z,27.88
2017-06-25T06:10:22.440Z,27.85
2017-06-25T06:11:22.795Z,27.81
2017-06-25T06:12:22.816Z,27.79
2017-06-25T06:13:22.843Z,27.85
2017-06-25T06:14:22.560Z,27.82
2017-06-25T06:15:22.600Z,27.75
2017-06-25T06:16:22.634Z,27.82
2017-06-25T06:17:22.964Z,27.79
2017-06-25T06:18:22.683Z,27.81
2017-06-25T06:19:23.029Z,27.81
2017-06-25T06:20:23.046Z,27.78
2017-06-25T06:21:23.083Z,27.85
2017-06-25T06:22:22.492Z,27.81
2017-06-25T06:23:23.147Z,27.78
2017-06-25T06:24:22.864Z,27.81
2017-06-25T06:25:23.192Z,27.82
2017-06-25T06:26:22.922Z,27.84
2017-06-25T06:27:22.947Z,27.82
2017-06-25T06:28:23.287Z,27.87
2017-06-25T06:29:23.321Z,27.82
2017-06-25T06:30:23.289Z,27.82
2017-06-25T06:31:23.375Z,27.84
2017-06-25T06:32:23.400Z,27.88
2017-06-25T06:33:23.120Z,27.85
2017-06-25T06:34:23.473Z,27.77
2017-06-25T06:35:23.758Z,27.87
2017-06-25T06:36:23.220Z,27.84
2017-06-25T06:37:23.559Z,27.87
2017-06-25T06:38:23.265Z,27.87
2017-06-25T06:39:23.293Z,27.84
2017-06-25T06:40:23.902Z,27.85
2017-06-25T06:41:23.355Z,27.87
2017-06-25T06:42:23.392Z,27.87
2017-06-25T06:43:23.107Z,27.85
2017-06-25T06:44:23.450Z,27.87
2017-06-25T06:45:24.030Z,27.82
2017-06-25T06:46:23.510Z,27.88
2017-06-25T06:47:23.540Z,27.84
2017-06-25T06:48:23.592Z,27.85
2017-06-25T06:49:23.918Z,27.88
2017-06-25T06:50:24.283Z,27.85
2017-06-25T06:51:23.655Z,27.78
2017-06-25T06:52:24.006Z,27.81
2017-06-25T06:53:24.025Z,27.84
2017-06-25T06:54:24.049Z,27.79
2017-06-25T06:55:24.339Z,27.79
2017-06-25T06:56:24.128Z,27.88
2017-06-25T06:57:24.155Z,27.96
2017-06-25T06:58:24.176Z,27.88
2017-06-25T06:59:23.898Z,27.92
2017-06-25T07:00:24.492Z,27.88
2017-06-25T07:01:24.272Z,27.92
2017-06-25T07:02:24.297Z,27.88
2017-06-25T07:03:24.320Z,27.87
2017-06-25T07:04:24.357Z,27.88
2017-06-25T07:05:24.680Z,27.9
2017-06-25T07:06:24.423Z,27.94
2017-06-25T07:07:24.132Z,27.96
2017-06-25T07:08:24.477Z,27.87
2017-06-25T07:09:24.222Z,27.94
2017-06-25T07:10:24.474Z,27.94
2017-06-25T07:11:24.578Z,28
2017-06-25T07:12:24.585Z,28.02
2017-06-25T07:13:24.322Z,28.07
2017-06-25T07:14:24.657Z,28
2017-06-25T07:15:24.930Z,28.04
2017-06-25T07:16:24.400Z,28.09
2017-06-25T07:17:24.741Z,28.12
2017-06-25T07:18:24.780Z,28.04
2017-06-25T07:19:24.491Z,28.09
2017-06-25T07:20:24.774Z,28.12
2017-06-25T07:21:24.587Z,28.06
2017-06-25T07:22:24.896Z,28.14
2017-06-25T07:23:24.918Z,28.12
2017-06-25T07:24:24.634Z,28.17
2017-06-25T07:25:25.227Z,28.15
2017-06-25T07:26:25.009Z,28.17
2017-06-25T07:27:24.734Z,28.15
2017-06-25T07:28:24.445Z,28.21
2017-06-25T07:29:24.802Z,28.21
2017-06-25T07:30:25.080Z,28.21
2017-06-25T07:31:24.847Z,28.24
2017-06-25T07:32:25.194Z,28.25
2017-06-25T07:33:25.229Z,28.21
2017-06-25T07:34:25.252Z,28.22
2017-06-25T07:35:25.576Z,28.22
2017-06-25T07:36:25.321Z,28.27
2017-06-25T07:37:25.342Z,28.24
2017-06-25T07:38:25.374Z,28.34
2017-06-25T07:39:25.395Z,28.27
2017-06-25T07:40:25.424Z,28.3
2017-06-25T07:41:25.459Z,28.29
2017-06-25T07:42:25.182Z,28.27
2017-06-25T07:43:25.206Z,28.3
2017-06-25T07:44:25.542Z,28.31
2017-06-25T07:45:25.269Z,28.36
2017-06-25T07:46:25.604Z,28.39
2017-06-25T07:47:25.642Z,28.33
2017-06-25T07:48:25.670Z,28.36
2017-06-25T07:49:25.387Z,28.4
2017-06-25T07:50:25.727Z,28.4
2017-06-25T07:51:25.760Z,28.46
2017-06-25T07:52:25.788Z,28.4
2017-06-25T07:53:25.822Z,28.52
2017-06-25T07:54:25.535Z,28.54
2017-06-25T07:55:25.875Z,28.44
2017-06-25T07:56:25.900Z,28.51
2017-06-25T07:57:25.948Z,28.52
2017-06-25T07:58:25.651Z,28.46
2017-06-25T07:59:25.675Z,28.49
2017-06-25T08:00:26.015Z,28.54
2017-06-25T08:01:25.740Z,28.46
2017-06-25T08:02:26.105Z,28.44
2017-06-25T08:03:25.798Z,28.43
2017-06-25T08:04:25.839Z,28.54
2017-06-25T08:05:26.184Z,28.51
2017-06-25T08:06:26.204Z,28.54
2017-06-25T08:07:26.240Z,28.55
2017-06-25T08:08:26.288Z,28.49
2017-06-25T08:09:25.994Z,28.52
2017-06-25T08:10:26.329Z,28.44
2017-06-25T08:11:26.360Z,28.58
2017-06-25T08:12:26.395Z,28.49
2017-06-25T08:13:26.118Z,28.54
2017-06-25T08:14:25.831Z,28.51
2017-06-25T08:15:26.489Z,28.59
2017-06-25T08:16:26.505Z,28.51
2017-06-25T08:17:26.554Z,28.52
2017-06-25T08:18:26.581Z,28.51
2017-06-25T08:19:26.604Z,28.54
2017-06-25T08:20:26.628Z,28.56
2017-06-25T08:21:26.662Z,28.52
2017-06-25T08:22:26.698Z,28.56
2017-06-25T08:23:26.726Z,28.52
2017-06-25T08:24:26.747Z,28.54
2017-06-25T08:25:26.797Z,28.55
2017-06-25T08:26:26.756Z,28.51
2017-06-25T08:27:26.839Z,28.56
2017-06-25T08:28:26.562Z,28.52
2017-06-25T08:29:26.590Z,28.55
2017-06-25T08:30:26.632Z,28.62
2017-06-25T08:31:27.269Z,28.56
2017-06-25T08:32:26.995Z,28.58
2017-06-25T08:33:27.023Z,28.55
2017-06-25T08:34:27.052Z,28.51
2017-06-25T08:35:27.088Z,28.51
2017-06-25T08:36:27.069Z,28.56
2017-06-25T08:37:27.144Z,28.52
2017-06-25T08:38:26.863Z,28.54
2017-06-25T08:39:27.200Z,28.59
2017-06-25T08:40:26.925Z,28.56
2017-06-25T08:41:27.262Z,28.52
2017-06-25T08:42:27.290Z,28.56
2017-06-25T08:43:27.328Z,28.58
2017-06-25T08:44:27.351Z,28.59
2017-06-25T08:45:27.394Z,28.58
2017-06-25T08:46:27.666Z,28.56
2017-06-25T08:47:27.449Z,28.68
2017-06-25T08:48:27.478Z,28.61
2017-06-25T08:49:27.200Z,28.66
2017-06-25T08:50:27.536Z,28.61
2017-06-25T08:51:27.508Z,28.66
2017-06-25T08:52:27.591Z,28.62
2017-06-25T08:53:27.008Z,28.58
2017-06-25T08:54:27.340Z,28.67
2017-06-25T08:55:27.697Z,28.7
2017-06-25T08:56:27.667Z,28.71
2017-06-25T08:57:27.751Z,28.67
2017-06-25T08:58:27.772Z,28.67
2017-06-25T08:59:27.805Z,28.7
2017-06-25T09:00:27.835Z,28.68
2017-06-25T09:01:28.175Z,28.7
2017-06-25T09:02:27.907Z,28.77
2017-06-25T09:03:27.623Z,28.67
2017-06-25T09:04:27.647Z,28.7
2017-06-25T09:05:27.678Z,28.74
2017-06-25T09:06:27.968Z,28.77
2017-06-25T09:07:27.736Z,28.8
2017-06-25T09:08:27.772Z,28.76
2017-06-25T09:09:28.149Z,28.8
2017-06-25T09:10:27.521Z,28.83
2017-06-25T09:11:28.461Z,28.83
2017-06-25T09:12:28.190Z,28.85
2017-06-25T09:13:28.224Z,28.83
2017-06-25T09:14:28.263Z,28.85
2017-06-25T09:15:27.990Z,28.88
2017-06-25T09:16:28.578Z,28.88
2017-06-25T09:17:28.356Z,28.88
2017-06-25T09:18:28.068Z,28.86
2017-06-25T09:19:28.413Z,28.86
2017-06-25T09:20:27.827Z,28.86
2017-06-25T09:21:28.166Z,28.89
2017-06-25T09:22:28.518Z,28.93
2017-06-25T09:23:28.537Z,28.92
2017-06-25T09:24:28.257Z,28.92
2017-06-25T09:25:27.972Z,28.93
2017-06-25T09:26:28.624Z,28.96
2017-06-25T09:27:28.664Z,28.9
2017-06-25T09:28:28.372Z,28.96
2017-06-25T09:29:28.713Z,28.92
2017-06-25T09:30:28.756Z,28.9
2017-06-25T09:31:28.779Z,28.98
2017-06-25T09:32:28.816Z,28.92
2017-06-25T09:33:28.217Z,28.95
2017-06-25T09:34:28.558Z,28.9
2017-06-25T09:35:28.593Z,28.9
2017-06-25T09:36:28.632Z,28.89
2017-06-25T09:37:28.967Z,28.86
2017-06-25T09:38:29.001Z,28.93
2017-06-25T09:39:29.027Z,28.9
2017-06-25T09:40:29.059Z,28.9
2017-06-25T09:41:29.083Z,28.92
2017-06-25T09:42:29.109Z,28.89
2017-06-25T09:43:29.149Z,28.93
2017-06-25T09:44:28.865Z,28.93
2017-06-25T09:45:29.211Z,28.92
2017-06-25T09:46:29.237Z,28.9
2017-06-25T09:47:28.964Z,28.86
2017-06-25T09:48:29.305Z,28.88
2017-06-25T09:49:29.334Z,28.86
2017-06-25T09:50:29.362Z,28.9
2017-06-25T09:51:29.392Z,28.89
2017-06-25T09:52:29.422Z,28.78
2017-06-25T09:53:29.149Z,28.71
2017-06-25T09:54:29.479Z,28.74
2017-06-25T09:55:29.515Z,28.78
2017-06-25T09:56:29.546Z,28.68
2017-06-25T09:57:29.253Z,28.7
2017-06-25T09:58:29.282Z,28.68
2017-06-25T09:59:29.626Z,28.68
2017-06-25T10:00:29.668Z,28.67
2017-06-25T10:01:29.383Z,28.67
2017-06-25T10:02:29.720Z,28.7
2017-06-25T10:03:29.761Z,28.73
2017-06-25T10:04:29.478Z,28.81
2017-06-25T10:05:29.812Z,28.71
2017-06-25T10:06:29.829Z,28.71
2017-06-25T10:07:29.872Z,28.8
2017-06-25T10:08:29.906Z,28.77
2017-06-25T10:09:29.930Z,28.78
2017-06-25T10:10:29.961Z,28.81
2017-06-25T10:11:29.684Z,28.81
2017-06-25T10:12:29.718Z,28.86
2017-06-25T10:13:29.750Z,28.89
2017-06-25T10:14:29.470Z,28.85
2017-06-25T10:15:30.116Z,28.89
2017-06-25T10:16:29.840Z,28.89
2017-06-25T10:17:30.121Z,28.86
2017-06-25T10:18:29.902Z,28.83
2017-06-25T10:19:30.242Z,28.89
2017-06-25T10:20:30.280Z,28.92
2017-06-25T10:21:30.300Z,28.89
2017-06-25T10:22:30.582Z,28.88
2017-06-25T10:23:30.369Z,28.88
2017-06-25T10:24:30.081Z,28.88
2017-06-25T10:25:30.424Z,28.88
2017-06-25T10:26:30.460Z,28.93
2017-06-25T10:27:30.793Z,28.89
2017-06-25T10:28:30.206Z,28.9
2017-06-25T10:29:30.546Z,28.9
2017-06-25T10:30:30.580Z,28.88
2017-06-25T10:31:30.305Z,28.85
2017-06-25T10:32:30.937Z,28.83
2017-06-25T10:33:30.662Z,28.88
2017-06-25T10:34:30.387Z,28.89
2017-06-25T10:35:30.731Z,28.83
2017-06-25T10:36:30.444Z,28.93
2017-06-25T10:37:31.090Z,28.89
2017-06-25T10:38:30.818Z,28.89
2017-06-25T10:39:30.847Z,28.92
2017-06-25T10:40:30.564Z,28.9
2017-06-25T10:41:30.601Z,28.93
2017-06-25T10:42:31.233Z,28.88
2017-06-25T10:43:30.977Z,28.81
2017-06-25T10:44:31.010Z,28.86
2017-06-25T10:45:31.037Z,28.9
2017-06-25T10:46:31.069Z,28.86
2017-06-25T10:47:31.033Z,28.9
2017-06-25T10:48:31.131Z,28.86
2017-06-25T10:49:30.844Z,28.89
2017-06-25T10:50:30.870Z,28.96
2017-06-25T10:51:30.909Z,28.93
2017-06-25T10:52:31.494Z,28.92
2017-06-25T10:53:31.282Z,28.96
2017-06-25T10:54:30.996Z,28.98
2017-06-25T10:55:31.028Z,29.04
2017-06-25T10:56:31.385Z,29.04
2017-06-25T10:57:31.702Z,28.9
2017-06-25T10:58:31.122Z,28.98
2017-06-25T10:59:31.148Z,28.93
2017-06-25T11:00:31.493Z,28.98
2017-06-25T11:01:31.210Z,28.89
2017-06-25T11:02:31.491Z,28.96
2017-06-25T11:03:30.952Z,28.95
2017-06-25T11:04:31.306Z,28.93
2017-06-25T11:05:31.650Z,28.92
2017-06-25T11:06:31.678Z,28.98
2017-06-25T11:07:31.961Z,29.08
2017-06-25T11:08:31.425Z,28.95
2017-06-25T11:09:31.768Z,28.98
2017-06-25T11:10:31.794Z,28.93
2017-06-25T11:11:31.821Z,29.05
2017-06-25T11:12:32.109Z,28.93
2017-06-25T11:13:31.263Z,29.05
2017-06-25T11:14:31.916Z,29.04
2017-06-25T11:15:31.944Z,29.05
2017-06-25T11:16:31.665Z,29.05
2017-06-25T11:17:32.265Z,29.05
2017-06-25T11:18:32.035Z,29.02
2017-06-25T11:19:31.776Z,28.95
2017-06-25T11:20:31.793Z,29.06
2017-06-25T11:21:31.510Z,29
2017-06-25T11:22:32.103Z,29.08
2017-06-25T11:23:31.888Z,29.02
2017-06-25T11:24:31.929Z,29.12
2017-06-25T11:25:32.257Z,29.14
2017-06-25T11:26:32.282Z,29.14
2017-06-25T11:27:32.254Z,29.11
2017-06-25T11:28:32.031Z,29.15
2017-06-25T11:29:32.381Z,29.06
2017-06-25T11:30:32.405Z,29.09
2017-06-25T11:31:32.439Z,29.04
2017-06-25T11:32:32.094Z,28.95
2017-06-25T11:33:32.512Z,28.96
2017-06-25T11:34:32.526Z,28.9
2017-06-25T11:35:32.566Z,28.9
2017-06-25T11:36:32.586Z,28.85
2017-06-25T11:37:32.919Z,28.89
2017-06-25T11:38:32.020Z,28.86
2017-06-25T11:39:32.681Z,28.83
2017-06-25T11:40:32.708Z,28.89
2017-06-25T11:41:32.427Z,28.86
2017-06-25T11:42:33.019Z,28.81
2017-06-25T11:43:32.800Z,28.76
2017-06-25T11:44:32.833Z,28.76
2017-06-25T11:45:32.862Z,28.77
2017-06-25T11:46:32.895Z,28.71
2017-06-25T11:47:33.173Z,28.7
2017-06-25T11:48:32.635Z,28.73
2017-06-25T11:49:32.989Z,28.7
2017-06-25T11:50:33.022Z,28.67
2017-06-25T11:51:33.039Z,28.66
2017-06-25T11:52:32.452Z,28.62
2017-06-25T11:53:33.120Z,28.67
2017-06-25T11:54:32.834Z,28.73
2017-06-25T11:55:33.166Z,28.62
2017-06-25T11:56:32.883Z,28.64
2017-06-25T11:57:33.227Z,28.7
2017-06-25T11:58:33.261Z,28.64
2017-06-25T11:59:32.977Z,28.64
2017-06-25T12:00:33.006Z,28.64
2017-06-25T12:01:33.352Z,28.61
2017-06-25T12:02:33.095Z,28.68
2017-06-25T12:03:33.419Z,28.59
2017-06-25T12:04:33.446Z,28.68
2017-06-25T12:05:33.466Z,28.62
2017-06-25T12:06:33.507Z,28.64
2017-06-25T12:07:33.537Z,28.7
2017-06-25T12:08:33.568Z,28.66
2017-06-25T12:09:33.603Z,28.66
2017-06-25T12:10:33.626Z,28.66
2017-06-25T12:11:33.344Z,28.66
2017-06-25T12:12:33.685Z,28.67
2017-06-25T12:13:34.018Z,28.68
2017-06-25T12:14:33.441Z,28.7
2017-06-25T12:15:33.464Z,28.61
2017-06-25T12:16:33.810Z,28.62
2017-06-25T12:17:33.520Z,28.68
2017-06-25T12:18:34.125Z,28.71
2017-06-25T12:19:33.903Z,28.7
2017-06-25T12:20:33.935Z,28.73
2017-06-25T12:21:33.957Z,28.73
2017-06-25T12:22:33.992Z,28.83
2017-06-25T12:23:33.697Z,28.86
2017-06-25T12:24:34.054Z,28.86
2017-06-25T12:25:34.088Z,28.92
2017-06-25T12:26:34.108Z,28.9
2017-06-25T12:27:33.825Z,29.05
2017-06-25T12:28:34.109Z,29.15
2017-06-25T12:29:34.202Z,29.16
2017-06-25T12:30:33.936Z,29.23
2017-06-25T12:31:34.263Z,29.39
2017-06-25T12:32:33.981Z,29.39
2017-06-25T12:33:34.633Z,29.49
2017-06-25T12:34:34.050Z,29.52
2017-06-25T12:35:34.400Z,29.6
2017-06-25T12:36:34.415Z,29.73
2017-06-25T12:37:34.140Z,29.8
2017-06-25T12:38:34.790Z,29.9
2017-06-25T12:39:34.506Z,29.89
2017-06-25T12:40:34.551Z,29.94
2017-06-25T12:41:34.588Z,30.1
2017-06-25T12:42:34.612Z,30.22
2017-06-25T12:43:34.579Z,30.38
2017-06-25T12:44:34.676Z,30.51
2017-06-25T12:45:34.716Z,30.62
2017-06-25T12:46:34.429Z,30.62
2017-06-25T12:47:34.774Z,30.61
2017-06-25T12:48:34.749Z,30.64
2017-06-25T12:49:34.856Z,30.6
2017-06-25T12:50:34.869Z,30.6
2017-06-25T12:51:34.889Z,30.57
2017-06-25T12:52:34.932Z,30.51
2017-06-25T12:53:34.903Z,30.57
2017-06-25T12:54:35.007Z,30.49
2017-06-25T12:55:35.032Z,30.53